createdAt,value
2023-03-15T00:00:24.779Z,6.60
2023-03-15T00:02:51.614Z,6.50
2023-03-15T00:05:18.620Z,6.50
2023-03-15T00:07:45.416Z,6.50
2023-03-15T00:10:12.389Z,6.50
2023-03-15T00:12:42.560Z,6.50
2023-03-15T00:15:13.508Z,6.40
2023-03-15T00:17:40.311Z,6.40
2023-03-15T00:20:08.815Z,6.40
2023-03-15T00:22:35.602Z,6.40
2023-03-15T00:25:02.392Z,6.30
2023-03-15T00:27:29.180Z,6.30
2023-03-15T00:29:56.119Z,6.30
2023-03-15T00:32:24.286Z,6.20
2023-03-15T00:34:54.638Z,6.20
2023-03-15T00:37:21.959Z,6.20
2023-03-15T00:39:49.129Z,6.20
2023-03-15T00:42:16.043Z,6.10
2023-03-15T00:44:43.214Z,6.00
2023-03-15T00:47:10.343Z,6.00
2023-03-15T00:49:38.544Z,6.00
2023-03-15T00:52:05.792Z,6.00
2023-03-15T00:54:33.475Z,5.90
2023-03-15T00:57:00.405Z,5.90
2023-03-15T00:59:34.796Z,5.70
2023-03-15T01:02:01.831Z,5.60
2023-03-15T01:04:28.760Z,5.40
2023-03-15T01:06:57.198Z,5.20
2023-03-15T01:09:24.073Z,5.10
2023-03-15T01:11:51.325Z,5.00
2023-03-15T01:14:18.961Z,5.00
2023-03-15T01:16:46.160Z,4.90
2023-03-15T01:19:13.490Z,4.90
2023-03-15T01:21:40.503Z,4.90
2023-03-15T01:24:12.937Z,4.90
2023-03-15T01:26:40.839Z,4.80
2023-03-15T01:29:07.933Z,4.80
2023-03-15T01:31:34.862Z,4.80
2023-03-15T01:34:03.465Z,4.70
2023-03-15T01:36:30.207Z,4.70
2023-03-15T01:38:56.995Z,4.60
2023-03-15T01:41:25.846Z,4.60
2023-03-15T01:43:53.161Z,4.50
2023-03-15T01:46:28.144Z,4.50
2023-03-15T01:49:00.607Z,4.30
2023-03-15T01:51:33.809Z,4.30
2023-03-15T01:54:04.773Z,4.20
2023-03-15T01:56:34.346Z,4.10
2023-03-15T01:59:03.078Z,4.10
2023-03-15T02:01:31.083Z,4.10
2023-03-15T02:04:02.817Z,4.00
2023-03-15T02:06:34.797Z,3.90
2023-03-15T02:09:04.718Z,3.90
2023-03-15T02:11:34.131Z,3.80
2023-03-15T02:14:03.355Z,3.80
2023-03-15T02:16:30.955Z,3.70
2023-03-15T02:18:57.871Z,3.70
2023-03-15T02:21:40.866Z,3.70
2023-03-15T02:24:20.868Z,3.70
2023-03-15T02:26:53.415Z,3.80
2023-03-15T02:29:23.269Z,3.70
2023-03-15T02:31:50.159Z,3.70
2023-03-15T02:34:17.030Z,3.60
2023-03-15T02:36:44.022Z,3.60
2023-03-15T02:39:15.688Z,3.60
2023-03-15T02:41:46.571Z,3.60
2023-03-15T02:44:18.975Z,3.60
2023-03-15T02:46:49.935Z,3.60
2023-03-15T02:49:21.534Z,3.70
2023-03-15T02:51:48.393Z,3.70
2023-03-15T02:54:15.448Z,3.70
2023-03-15T02:56:42.243Z,3.70
2023-03-15T02:59:09.132Z,3.60
2023-03-15T03:01:38.730Z,3.60
2023-03-15T03:04:07.374Z,3.50
2023-03-15T03:06:34.150Z,3.50
2023-03-15T03:09:04.448Z,3.50
2023-03-15T03:11:31.557Z,3.40
2023-03-15T03:13:58.433Z,3.40
2023-03-15T03:16:25.421Z,3.40
2023-03-15T03:18:52.293Z,3.40
2023-03-15T03:21:20.422Z,3.40
2023-03-15T03:23:47.266Z,3.40
2023-03-15T03:26:18.450Z,3.40
2023-03-15T03:28:47.254Z,3.30
2023-03-15T03:31:18.837Z,3.30
2023-03-15T03:33:45.944Z,3.30
2023-03-15T03:36:13.164Z,3.30
2023-03-15T03:38:42.744Z,3.30
2023-03-15T03:41:09.877Z,3.20
2023-03-15T03:43:36.850Z,3.20
2023-03-15T03:46:04.628Z,3.30
2023-03-15T03:48:31.991Z,3.30
2023-03-15T03:50:58.912Z,3.40
2023-03-15T03:53:25.973Z,3.30
2023-03-15T03:55:54.592Z,3.40
2023-03-15T03:58:22.188Z,3.40
2023-03-15T04:00:49.301Z,3.40
2023-03-15T04:03:16.343Z,3.40
2023-03-15T04:05:43.253Z,3.40
2023-03-15T04:08:10.353Z,3.40
2023-03-15T04:10:37.167Z,3.50
2023-03-15T04:13:05.299Z,3.50
2023-03-15T04:15:32.088Z,3.40
2023-03-15T04:17:59.017Z,3.30
2023-03-15T04:20:27.487Z,3.30
2023-03-15T04:22:54.614Z,3.30
2023-03-15T04:25:21.789Z,3.30
2023-03-15T04:27:58.797Z,3.30
2023-03-15T04:30:28.056Z,3.30
2023-03-15T04:33:03.487Z,3.30
2023-03-15T04:35:32.268Z,3.30
2023-03-15T04:37:59.129Z,3.20
2023-03-15T04:40:26.399Z,3.20
2023-03-15T04:42:56.668Z,3.10
2023-03-15T04:45:24.410Z,3.10
2023-03-15T04:47:53.568Z,3.10
2023-03-15T04:50:21.679Z,3.10
2023-03-15T04:52:48.763Z,3.10
2023-03-15T04:55:15.679Z,3.20
2023-03-15T04:57:42.596Z,3.20
2023-03-15T05:00:12.069Z,3.10
2023-03-15T05:02:41.395Z,3.10
2023-03-15T05:05:10.763Z,3.10
2023-03-15T05:07:38.797Z,3.10
2023-03-15T05:10:06.981Z,3.10
2023-03-15T05:12:34.092Z,3.10
2023-03-15T05:15:00.998Z,3.10
2023-03-15T05:17:27.979Z,3.10
2023-03-15T05:19:54.870Z,3.10
2023-03-15T05:22:25.929Z,3.10
2023-03-15T05:24:56.186Z,3.10
2023-03-15T05:27:23.534Z,3.10
2023-03-15T05:29:51.362Z,3.10
2023-03-15T05:32:18.259Z,3.10
2023-03-15T05:34:45.029Z,3.10
2023-03-15T05:37:12.582Z,3.20
2023-03-15T05:39:42.499Z,3.20
2023-03-15T05:42:09.311Z,3.20
2023-03-15T05:44:36.116Z,3.20
2023-03-15T05:47:03.094Z,3.10
2023-03-15T05:49:29.925Z,3.10
2023-03-15T05:51:56.713Z,3.10
2023-03-15T05:54:23.578Z,3.00
2023-03-15T05:56:51.768Z,3.00
2023-03-15T05:59:18.606Z,3.00
2023-03-15T06:01:45.654Z,2.90
2023-03-15T06:04:12.557Z,2.80
2023-03-15T06:06:39.403Z,2.70
2023-03-15T06:09:06.335Z,2.60
2023-03-15T06:11:33.235Z,2.50
2023-03-15T06:14:01.514Z,2.40
2023-03-15T06:16:28.394Z,2.40
2023-03-15T06:18:55.189Z,2.40
2023-03-15T06:21:22.141Z,2.40
2023-03-15T06:23:49.024Z,2.40
2023-03-15T06:26:18.665Z,2.40
2023-03-15T06:28:45.860Z,2.40
2023-03-15T06:31:14.831Z,2.40
2023-03-15T06:33:41.865Z,2.40
2023-03-15T06:36:09.563Z,2.40
2023-03-15T06:38:36.505Z,2.50
2023-03-15T06:41:05.157Z,2.50
2023-03-15T06:43:32.270Z,2.60
2023-03-15T06:46:00.025Z,2.60
2023-03-15T06:48:28.862Z,2.60
2023-03-15T06:50:55.932Z,2.70
2023-03-15T06:53:22.803Z,2.70
2023-03-15T06:55:52.343Z,2.60
2023-03-15T06:58:19.226Z,2.60
2023-03-15T07:00:46.126Z,2.60
2023-03-15T07:03:12.929Z,2.60
2023-03-15T07:05:41.164Z,2.60
2023-03-15T07:08:08.036Z,2.70
2023-03-15T07:10:34.908Z,2.60
2023-03-15T07:13:01.766Z,2.60
2023-03-15T07:15:28.686Z,2.70
2023-03-15T07:17:55.576Z,2.70
2023-03-15T07:20:22.427Z,2.70
2023-03-15T07:22:50.704Z,2.70
2023-03-15T07:25:23.767Z,2.70
2023-03-15T07:27:51.111Z,2.80
2023-03-15T07:30:18.233Z,2.80
2023-03-15T07:32:45.288Z,2.80
2023-03-15T07:35:13.548Z,2.80
2023-03-15T07:37:44.285Z,2.80
2023-03-15T07:40:14.139Z,2.80
2023-03-15T07:42:40.993Z,2.80
2023-03-15T07:45:09.420Z,2.80
2023-03-15T07:47:36.666Z,2.80
2023-03-15T07:50:04.052Z,2.90
2023-03-15T07:52:30.953Z,3.00
2023-03-15T07:54:57.881Z,3.00
2023-03-15T07:57:28.422Z,3.00
2023-03-15T07:59:56.156Z,3.10
2023-03-15T08:02:23.319Z,3.10
2023-03-15T08:04:51.377Z,3.20
2023-03-15T08:07:18.282Z,3.30
2023-03-15T08:09:45.164Z,3.40
2023-03-15T08:12:12.319Z,3.50
2023-03-15T08:14:40.628Z,3.60
2023-03-15T08:17:12.918Z,3.70
2023-03-15T08:19:40.142Z,4.00
2023-03-15T08:22:07.453Z,4.30
2023-03-15T08:24:35.657Z,4.40
2023-03-15T08:27:02.850Z,4.50
2023-03-15T08:29:29.747Z,4.50
2023-03-15T08:31:58.457Z,4.50
2023-03-15T08:34:25.680Z,4.60
2023-03-15T08:36:52.614Z,4.60
2023-03-15T08:39:19.544Z,4.60
2023-03-15T08:41:47.409Z,4.60
2023-03-15T08:44:14.323Z,4.50
2023-03-15T08:46:41.330Z,4.50
2023-03-15T08:49:09.644Z,4.50
2023-03-15T08:51:36.784Z,4.50
2023-03-15T08:54:04.123Z,4.60
2023-03-15T08:56:32.353Z,4.60
2023-03-15T08:58:59.287Z,4.60
2023-03-15T09:01:26.334Z,4.60
2023-03-15T09:03:53.325Z,4.70
2023-03-15T09:06:21.878Z,5.10
2023-03-15T09:08:48.764Z,5.70
2023-03-15T09:11:15.600Z,6.30
2023-03-15T09:13:42.616Z,6.80
2023-03-15T09:16:09.482Z,7.40
2023-03-15T09:18:36.416Z,8.10
2023-03-15T09:21:04.902Z,9.10
2023-03-15T09:23:33.603Z,10.20
2023-03-15T09:26:00.457Z,11.20
2023-03-15T09:28:27.632Z,11.80
2023-03-15T09:30:54.748Z,12.20
2023-03-15T09:33:22.467Z,12.50
2023-03-15T09:35:51.474Z,13.00
2023-03-15T09:38:18.551Z,13.00
2023-03-15T09:40:47.309Z,12.60
2023-03-15T09:43:31.535Z,12.20
2023-03-15T09:46:09.292Z,11.90
2023-03-15T09:48:41.290Z,11.50
2023-03-15T09:51:13.863Z,11.40
2023-03-15T09:53:47.334Z,11.30
2023-03-15T09:56:23.941Z,11.10
2023-03-15T09:58:55.245Z,11.30
2023-03-15T10:01:28.780Z,11.70
2023-03-15T10:03:56.129Z,12.20
2023-03-15T10:06:28.408Z,12.70
2023-03-15T10:08:57.412Z,12.70
2023-03-15T10:11:32.382Z,12.50
2023-03-15T10:14:14.351Z,12.10
2023-03-15T10:16:43.154Z,11.60
2023-03-15T10:19:17.909Z,11.00
2023-03-15T10:21:54.304Z,10.60
2023-03-15T10:24:25.727Z,10.80
2023-03-15T10:26:54.397Z,11.70
2023-03-15T10:29:25.387Z,12.70
2023-03-15T10:31:54.341Z,13.60
2023-03-15T10:34:21.981Z,14.50
2023-03-15T10:36:54.261Z,15.60
2023-03-15T10:39:22.435Z,16.40
2023-03-15T10:41:50.628Z,16.50
2023-03-15T10:44:21.479Z,16.40
2023-03-15T10:47:04.969Z,16.40
2023-03-15T10:49:38.674Z,16.20
2023-03-15T10:52:06.076Z,15.80
2023-03-15T10:54:34.613Z,15.80
2023-03-15T10:57:05.690Z,16.30
2023-03-15T10:59:35.635Z,16.50
2023-03-15T11:02:20.302Z,16.10
2023-03-15T11:04:49.886Z,15.60
2023-03-15T11:07:16.880Z,15.70
2023-03-15T11:09:45.650Z,15.80
2023-03-15T11:12:18.927Z,16.30
2023-03-15T11:14:50.673Z,16.90
2023-03-15T11:17:20.316Z,17.30
2023-03-15T11:19:53.472Z,17.50
2023-03-15T11:22:20.999Z,17.60
2023-03-15T11:24:47.879Z,17.70
2023-03-15T11:27:17.280Z,18.10
2023-03-15T11:29:49.928Z,18.40
2023-03-15T11:32:20.778Z,18.40
2023-03-15T11:34:57.948Z,18.40
2023-03-15T11:37:29.162Z,18.40
2023-03-15T11:40:10.797Z,18.00
2023-03-15T11:42:46.732Z,17.40
2023-03-15T11:45:20.398Z,16.70
2023-03-15T11:47:51.628Z,15.90
2023-03-15T11:50:19.046Z,15.10
2023-03-15T11:52:49.419Z,14.30
2023-03-15T11:55:18.362Z,13.60
2023-03-15T11:57:46.646Z,13.10
2023-03-15T12:00:26.987Z,12.60
2023-03-15T12:02:56.220Z,12.30
2023-03-15T12:05:44.170Z,11.90
2023-03-15T12:08:22.277Z,11.70
2023-03-15T12:10:49.811Z,11.50
2023-03-15T12:13:28.282Z,11.40
2023-03-15T12:15:57.069Z,11.30
2023-03-15T12:18:40.051Z,11.50
2023-03-15T12:21:16.162Z,11.80
2023-03-15T12:23:46.853Z,12.30
2023-03-15T12:26:26.202Z,12.70
2023-03-15T12:29:07.435Z,12.90
2023-03-15T12:31:52.481Z,12.90
2023-03-15T12:34:45.360Z,13.20
2023-03-15T12:37:19.066Z,13.40
2023-03-15T12:39:49.089Z,13.70
2023-03-15T12:42:49.284Z,13.90
2023-03-15T12:45:45.580Z,14.00
2023-03-15T12:48:31.776Z,14.20
2023-03-15T12:51:01.824Z,14.00
2023-03-15T12:53:39.978Z,13.80
2023-03-15T12:56:40.533Z,13.50
2023-03-15T12:59:17.513Z,13.40
2023-03-15T13:01:46.032Z,13.40
2023-03-15T13:04:14.755Z,13.60
2023-03-15T13:07:09.980Z,13.70
2023-03-15T13:10:06.615Z,13.60
2023-03-15T13:12:41.631Z,13.30
2023-03-15T13:15:12.496Z,13.00
2023-03-15T13:17:48.118Z,12.80
2023-03-15T13:20:40.759Z,12.50
2023-03-15T13:23:15.334Z,12.30
2023-03-15T13:25:53.234Z,12.20
2023-03-15T13:28:24.505Z,12.20
2023-03-15T13:30:53.352Z,12.50
2023-03-15T13:33:22.814Z,12.50
2023-03-15T13:35:57.504Z,12.30
2023-03-15T13:38:30.666Z,12.30
2023-03-15T13:40:59.345Z,12.30
2023-03-15T13:43:29.152Z,12.40
2023-03-15T13:45:58.007Z,12.50
2023-03-15T13:48:27.424Z,12.60
2023-03-15T13:50:57.390Z,12.60
2023-03-15T13:53:39.501Z,12.60
2023-03-15T13:56:15.424Z,12.70
2023-03-15T13:58:43.303Z,12.70
2023-03-15T14:01:12.231Z,12.80
2023-03-15T14:03:43.252Z,12.90
2023-03-15T14:06:21.771Z,12.90
2023-03-15T14:08:49.718Z,12.90
2023-03-15T14:11:31.044Z,12.70
2023-03-15T14:14:02.928Z,12.50
2023-03-15T14:16:33.438Z,12.50
2023-03-15T14:19:16.003Z,12.40
2023-03-15T14:21:45.272Z,12.40
2023-03-15T14:24:25.446Z,12.30
2023-03-15T14:26:54.725Z,12.20
2023-03-15T14:29:28.294Z,12.10
2023-03-15T14:32:01.205Z,12.00
2023-03-15T14:34:36.557Z,12.00
2023-03-15T14:37:25.021Z,12.10
2023-03-15T14:39:51.922Z,12.10
2023-03-15T14:42:18.759Z,12.10
2023-03-15T14:44:45.539Z,12.10
2023-03-15T14:47:16.356Z,12.00
2023-03-15T14:49:43.175Z,11.90
2023-03-15T14:52:13.589Z,11.80
2023-03-15T14:54:46.695Z,11.80
2023-03-15T14:57:13.611Z,11.90
2023-03-15T14:59:40.434Z,11.90
2023-03-15T15:02:12.614Z,12.00
2023-03-15T15:04:41.584Z,12.00
2023-03-15T15:07:12.465Z,11.90
2023-03-15T15:09:43.770Z,11.60
2023-03-15T15:12:11.656Z,11.70
2023-03-15T15:14:38.491Z,11.60
2023-03-15T15:17:05.435Z,11.60
2023-03-15T15:19:32.300Z,11.60
2023-03-15T15:21:59.163Z,11.60
2023-03-15T15:24:27.703Z,11.50
2023-03-15T15:26:54.877Z,11.50
2023-03-15T15:29:21.801Z,11.50
2023-03-15T15:31:48.643Z,11.40
2023-03-15T15:34:15.631Z,11.30
2023-03-15T15:36:44.089Z,11.20
2023-03-15T15:39:17.766Z,11.20
2023-03-15T15:41:46.031Z,11.20
2023-03-15T15:44:15.974Z,11.10
2023-03-15T15:46:42.929Z,11.00
2023-03-15T15:49:09.881Z,11.00
2023-03-15T15:51:41.564Z,11.00
2023-03-15T15:54:13.949Z,11.00
2023-03-15T15:56:45.577Z,10.90
2023-03-15T15:59:15.155Z,10.80
2023-03-15T16:01:56.607Z,10.70
2023-03-15T16:04:26.442Z,10.60
2023-03-15T16:06:56.812Z,10.60
2023-03-15T16:09:25.635Z,10.50
2023-03-15T16:11:52.543Z,10.40
2023-03-15T16:14:20.796Z,10.30
2023-03-15T16:16:48.503Z,10.30
2023-03-15T16:19:15.367Z,10.30
2023-03-15T16:21:45.275Z,10.30
2023-03-15T16:24:17.072Z,10.30
2023-03-15T16:26:45.194Z,10.30
2023-03-15T16:29:16.776Z,10.30
2023-03-15T16:31:45.135Z,10.30
2023-03-15T16:34:12.843Z,10.30
2023-03-15T16:36:43.571Z,10.30
2023-03-15T16:39:11.335Z,10.30
2023-03-15T16:41:38.216Z,10.30
2023-03-15T16:44:10.823Z,10.30
2023-03-15T16:46:37.786Z,10.30
2023-03-15T16:49:05.936Z,10.20
2023-03-15T16:51:33.309Z,10.20
2023-03-15T16:54:14.972Z,10.10
2023-03-15T16:56:43.350Z,10.10
2023-03-15T16:59:13.115Z,10.00
2023-03-15T17:01:40.226Z,10.00
2023-03-15T17:04:08.455Z,9.90
2023-03-15T17:06:35.442Z,9.90
2023-03-15T17:09:09.072Z,9.80
2023-03-15T17:11:38.549Z,9.70
2023-03-15T17:14:06.622Z,9.70
2023-03-15T17:16:33.659Z,9.60
2023-03-15T17:19:01.519Z,9.50
2023-03-15T17:21:31.177Z,9.50
2023-03-15T17:23:58.188Z,9.40
2023-03-15T17:26:25.094Z,9.30
2023-03-15T17:28:52.428Z,9.30
2023-03-15T17:31:25.541Z,9.20
2023-03-15T17:33:52.646Z,9.10
2023-03-15T17:36:22.326Z,9.00
2023-03-15T17:38:51.410Z,8.90
2023-03-15T17:41:21.591Z,8.80
2023-03-15T17:43:49.066Z,8.70
2023-03-15T17:46:17.310Z,8.60
2023-03-15T17:48:44.595Z,8.60
2023-03-15T17:51:16.262Z,8.50
2023-03-15T17:53:43.069Z,8.40
2023-03-15T17:56:11.618Z,8.40
2023-03-15T17:58:38.489Z,8.30
2023-03-15T18:01:13.378Z,8.20
2023-03-15T18:03:41.254Z,8.10
2023-03-15T18:06:08.453Z,8.00
2023-03-15T18:08:35.269Z,7.90
2023-03-15T18:11:02.089Z,7.90
2023-03-15T18:13:30.923Z,7.80
2023-03-15T18:15:57.967Z,7.70
2023-03-15T18:18:24.859Z,7.60
2023-03-15T18:20:51.815Z,7.60
2023-03-15T18:23:18.912Z,7.50
2023-03-15T18:25:45.941Z,7.50
2023-03-15T18:28:12.836Z,7.50
2023-03-15T18:30:41.184Z,7.50
2023-03-15T18:33:08.099Z,7.50
2023-03-15T18:35:36.721Z,7.40
2023-03-15T18:38:04.430Z,7.40
2023-03-15T18:40:32.630Z,7.30
2023-03-15T18:43:00.286Z,7.30
2023-03-15T18:45:32.282Z,7.20
2023-03-15T18:48:00.801Z,7.20
2023-03-15T18:50:28.632Z,7.10
2023-03-15T18:52:55.900Z,7.00
2023-03-15T18:55:23.175Z,7.00
2023-03-15T18:57:50.501Z,6.90
2023-03-15T19:00:25.977Z,6.90
2023-03-15T19:02:54.618Z,6.80
2023-03-15T19:05:23.180Z,6.70
2023-03-15T19:07:50.480Z,6.70
2023-03-15T19:10:19.544Z,6.60
2023-03-15T19:12:47.107Z,6.60
2023-03-15T19:15:17.335Z,6.50
2023-03-15T19:17:45.663Z,6.40
2023-03-15T19:20:14.545Z,6.40
2023-03-15T19:22:44.896Z,6.40
2023-03-15T19:25:13.928Z,6.30
2023-03-15T19:27:41.863Z,6.30
2023-03-15T19:30:10.399Z,6.20
2023-03-15T19:32:37.350Z,6.20
2023-03-15T19:35:05.005Z,6.10
2023-03-15T19:37:31.933Z,5.90
2023-03-15T19:40:00.169Z,6.00
2023-03-15T19:42:27.088Z,6.00
2023-03-15T19:44:53.969Z,6.00
2023-03-15T19:47:20.830Z,6.00
2023-03-15T19:49:47.660Z,5.90
2023-03-15T19:52:16.067Z,5.90
2023-03-15T19:54:42.976Z,5.80
2023-03-15T19:57:11.836Z,5.80
2023-03-15T19:59:40.941Z,5.70
2023-03-15T20:02:09.784Z,5.70
2023-03-15T20:04:36.996Z,5.60
2023-03-15T20:07:04.238Z,5.60
2023-03-15T20:09:31.400Z,5.50
2023-03-15T20:11:58.232Z,5.50
2023-03-15T20:14:26.598Z,5.40
2023-03-15T20:16:53.637Z,5.40
2023-03-15T20:19:20.468Z,5.40
2023-03-15T20:21:47.389Z,5.30
2023-03-15T20:24:14.298Z,5.30
2023-03-15T20:26:41.229Z,5.30
2023-03-15T20:29:08.306Z,5.30
2023-03-15T20:31:36.549Z,5.30
2023-03-15T20:34:05.637Z,5.20
2023-03-15T20:36:33.546Z,5.20
2023-03-15T20:39:00.602Z,5.10
2023-03-15T20:41:27.475Z,5.10
2023-03-15T20:43:54.363Z,5.10
2023-03-15T20:46:22.576Z,5.10
2023-03-15T20:48:52.296Z,5.10
2023-03-15T20:51:19.459Z,5.00
2023-03-15T20:53:46.434Z,5.00
2023-03-15T20:56:13.337Z,5.00
2023-03-15T20:58:40.558Z,5.00
2023-03-15T21:01:09.457Z,5.00
2023-03-15T21:03:36.776Z,4.90
2023-03-15T21:06:06.150Z,4.90
2023-03-15T21:08:34.601Z,4.80
2023-03-15T21:11:02.230Z,4.80
2023-03-15T21:13:29.550Z,4.70
2023-03-15T21:15:56.403Z,4.70
2023-03-15T21:18:24.432Z,4.70
2023-03-15T21:20:58.500Z,4.70
2023-03-15T21:23:27.910Z,4.70
2023-03-15T21:25:55.561Z,4.60
2023-03-15T21:28:23.265Z,4.60
2023-03-15T21:30:51.413Z,4.50
2023-03-15T21:33:18.601Z,4.50
2023-03-15T21:35:45.808Z,4.40
2023-03-15T21:38:12.926Z,4.40
2023-03-15T21:40:43.190Z,4.30
2023-03-15T21:43:10.169Z,4.30
2023-03-15T21:45:37.445Z,4.30
2023-03-15T21:48:04.526Z,4.30
2023-03-15T21:50:31.474Z,4.30
2023-03-15T21:52:59.452Z,4.20
2023-03-15T21:55:26.447Z,4.20
2023-03-15T21:57:54.674Z,4.20
2023-03-15T22:00:25.019Z,4.20
2023-03-15T22:02:55.582Z,4.20
2023-03-15T22:05:23.205Z,4.10
2023-03-15T22:07:50.080Z,4.10
2023-03-15T22:10:19.029Z,4.10
2023-03-15T22:12:45.905Z,4.10
2023-03-15T22:15:14.574Z,4.00
2023-03-15T22:17:41.577Z,4.00
2023-03-15T22:20:16.557Z,4.00
2023-03-15T22:22:43.861Z,4.00
2023-03-15T22:25:10.932Z,3.90
2023-03-15T22:27:37.879Z,3.90
2023-03-15T22:30:05.719Z,3.90
2023-03-15T22:32:34.020Z,3.90
2023-03-15T22:35:00.918Z,3.90
2023-03-15T22:37:27.686Z,3.90
2023-03-15T22:39:54.526Z,3.80
2023-03-15T22:42:21.465Z,3.80
2023-03-15T22:44:48.419Z,3.80
2023-03-15T22:47:15.269Z,3.80
2023-03-15T22:49:43.480Z,3.70
2023-03-15T22:52:10.606Z,3.80
2023-03-15T22:54:37.469Z,3.70
2023-03-15T22:57:04.676Z,3.70
2023-03-15T22:59:31.711Z,3.70
2023-03-15T23:01:58.644Z,3.60
2023-03-15T23:04:25.687Z,3.60
2023-03-15T23:06:53.915Z,3.60
2023-03-15T23:09:21.783Z,3.60
2023-03-15T23:11:48.822Z,3.50
2023-03-15T23:14:15.602Z,3.50
2023-03-15T23:16:45.025Z,3.60
2023-03-15T23:19:13.389Z,3.50
2023-03-15T23:21:40.539Z,3.50
2023-03-15T23:24:09.244Z,3.50
2023-03-15T23:26:37.180Z,3.40
2023-03-15T23:29:10.459Z,3.40
2023-03-15T23:31:37.612Z,3.30
2023-03-15T23:34:04.487Z,3.30
2023-03-15T23:36:31.332Z,3.30
2023-03-15T23:38:58.343Z,3.20
2023-03-15T23:41:26.858Z,3.20
2023-03-15T23:43:53.794Z,3.20
2023-03-15T23:46:24.829Z,3.20
2023-03-15T23:48:52.367Z,3.20
2023-03-15T23:51:22.271Z,3.20
2023-03-15T23:53:49.322Z,3.20
2023-03-15T23:56:16.187Z,3.30
2023-03-15T23:58:45.948Z,3.30
